Portada
METAR-TAF:

METAR-TAF

Aeroports :

Aeroport de Chimoio

Chimoio, Moçambic

latitud: 19-07S, longitud: 033-28E, altitud: 731 m

Observació

L'informe es va fer fa 2 hores i 5 minuts, a les 22:00 UTC
Temperatura 18°C
Humitat 100%
Pressió 1022 hPa
Visibilitat 10 km o més
Núvols disperses a una alçada de 1500 ft

METAR: FQCH 032200Z /////KT 9999 SCT015 18/18 Q1022

Hora: 02:05 (00:05 UTC)

Pronòstic

L'informe es va fer fa 2 hores i 5 minuts, a les 22:00 UTC
Pronòstic vàlid del 04 a les 00 UTC al 04 a les 24 UTC
Vent 10 kt del Sud-Oest
Visibilitat 10 km o més
Cel ennuvolat a una alçada de 1500 ft
Evolucionant progressivament
l' 04 a les 06 UTC al 04 a les 08 UTC
Vent 10 kt del Sud/Sud-Est
Evolucionant progressivament
l' 04 a les 12 UTC al 04 a les 14 UTC
Vent 8 kt del Est

TAF: FQCH 032200Z 0400/0424 23010KT 9999 BKN015 TX25/0413Z TN17/0403Z BECMG 0406/0408 16010KT BECMG 0412/0414 09008KT

Observacions i pronòstics meteorològics de més de 4000 aeroports (METAR i TAF).

Les estacions disponibles són els punts grocs i vermells al mapa.

Posi el ratolí al punt desitjat per veure el nom de l'estació.

Feu clic per veure les observacions i els pronòstics meteorològics.

Per canviar el mapa: feu clic els botons verds amb una creu de color negre per apropar; al botó verd amb un guió per allunyar la imatge; o en les fletxes verdes per a mapes adjacents.


METAR-TAF: